createdAt,value
2023-01-08T00:01:20.439Z,38.10
2023-01-08T00:03:50.364Z,36.50
2023-01-08T00:06:21.635Z,37.90
2023-01-08T00:08:49.759Z,36.00
2023-01-08T00:11:18.091Z,37.40
2023-01-08T00:13:46.511Z,37.20
2023-01-08T00:16:16.967Z,39.90
2023-01-08T00:18:46.655Z,35.20
2023-01-08T00:21:14.857Z,37.90
2023-01-08T00:23:42.999Z,36.20
2023-01-08T00:26:11.597Z,37.10
2023-01-08T00:28:40.374Z,39.40
2023-01-08T00:31:11.185Z,39.60
2023-01-08T00:33:41.117Z,39.30
2023-01-08T00:36:11.406Z,39.00
2023-01-08T00:38:39.421Z,37.90
2023-01-08T00:41:07.648Z,39.80
2023-01-08T00:43:36.511Z,38.60
2023-01-08T00:46:05.562Z,42.20
2023-01-08T00:48:37.448Z,40.50
2023-01-08T00:51:07.621Z,41.00
2023-01-08T00:53:38.290Z,39.50
2023-01-08T00:56:09.392Z,37.80
2023-01-08T00:58:37.635Z,39.70
2023-01-08T01:01:14.112Z,44.60
2023-01-08T01:03:42.802Z,106.20
2023-01-08T01:06:12.305Z,51.30
2023-01-08T01:08:41.188Z,40.00
2023-01-08T01:11:23.261Z,37.10
2023-01-08T01:13:52.071Z,39.20
2023-01-08T01:16:20.135Z,39.00
2023-01-08T01:18:49.185Z,40.10
2023-01-08T01:21:24.836Z,46.60
2023-01-08T01:24:01.455Z,54.20
2023-01-08T01:26:31.275Z,53.00
2023-01-08T01:29:00.210Z,55.60
2023-01-08T01:31:31.256Z,46.30
2023-01-08T01:33:59.603Z,44.40
2023-01-08T01:36:28.169Z,53.20
2023-01-08T01:38:57.616Z,54.00
2023-01-08T01:41:37.000Z,48.00
2023-01-08T01:48:43.522Z,48.10
2023-01-08T01:51:11.657Z,49.80
2023-01-08T01:53:41.876Z,47.80
2023-01-08T01:56:10.447Z,48.40
2023-01-08T01:58:38.466Z,45.40
2023-01-08T02:01:09.047Z,43.40
2023-01-08T02:03:39.329Z,40.20
2023-01-08T02:06:31.927Z,36.70
2023-01-08T02:09:22.632Z,39.70
2023-01-08T02:16:56.277Z,41.00
2023-01-08T02:19:58.825Z,38.70
2023-01-08T02:22:51.684Z,37.50
2023-01-08T02:25:54.087Z,37.70
2023-01-08T02:28:23.261Z,38.30
2023-01-08T02:30:51.287Z,35.40
2023-01-08T02:33:19.254Z,40.20
2023-01-08T02:36:11.147Z,39.40
2023-01-08T02:38:50.951Z,40.20
2023-01-08T02:41:24.679Z,35.60
2023-01-08T02:43:56.412Z,36.70
2023-01-08T02:46:32.598Z,34.90
2023-01-08T02:49:09.784Z,35.20
2023-01-08T02:51:44.853Z,34.70
2023-01-08T02:54:18.100Z,34.60
2023-01-08T02:56:52.729Z,32.60
2023-01-08T02:59:22.851Z,30.80
2023-01-08T03:01:51.508Z,32.00
2023-01-08T03:04:23.342Z,29.50
2023-01-08T03:06:51.855Z,30.70
2023-01-08T03:14:12.507Z,33.90
2023-01-08T03:16:48.992Z,31.80
2023-01-08T03:19:23.341Z,33.60
2023-01-08T03:21:53.277Z,31.10
2023-01-08T03:24:34.604Z,29.40
2023-01-08T03:27:07.102Z,30.00
2023-01-08T03:29:38.180Z,29.10
2023-01-08T03:32:11.696Z,30.80
2023-01-08T03:38:48.894Z,27.70
2023-01-08T03:41:21.259Z,27.90
2023-01-08T03:43:49.261Z,27.50
2023-01-08T03:46:24.296Z,27.80
2023-01-08T03:48:52.983Z,29.60
2023-01-08T03:51:21.065Z,28.20
2023-01-08T03:53:52.568Z,26.20
2023-01-08T03:56:20.579Z,24.70
2023-01-08T03:58:48.533Z,24.30
2023-01-08T04:01:16.608Z,25.60
2023-01-08T04:03:44.568Z,29.80
2023-01-08T04:06:12.548Z,29.80
2023-01-08T04:08:40.514Z,30.40
2023-01-08T04:11:08.491Z,27.70
2023-01-08T04:13:36.567Z,26.00
2023-01-08T04:16:04.948Z,26.00
2023-01-08T04:18:32.912Z,27.20
2023-01-08T04:21:01.562Z,26.10
2023-01-08T04:23:29.507Z,25.80
2023-01-08T04:25:57.503Z,24.60
2023-01-08T04:28:25.698Z,24.00
2023-01-08T04:30:53.737Z,24.00
2023-01-08T04:33:21.802Z,24.90
2023-01-08T04:35:49.747Z,23.50
2023-01-08T04:38:18.368Z,24.40
2023-01-08T04:40:46.381Z,23.80
2023-01-08T04:43:14.338Z,24.50
2023-01-08T04:45:42.439Z,23.50
2023-01-08T04:48:10.389Z,22.00
2023-01-08T04:50:38.449Z,21.40
2023-01-08T04:53:06.465Z,23.10
2023-01-08T04:55:34.569Z,24.60
2023-01-08T04:58:02.667Z,23.20
2023-01-08T05:00:30.908Z,23.50
2023-01-08T05:03:02.180Z,23.50
2023-01-08T05:05:30.330Z,23.20
2023-01-08T05:07:58.917Z,23.30
2023-01-08T05:14:39.595Z,24.10
2023-01-08T05:17:07.587Z,22.50
2023-01-08T05:19:37.584Z,22.30
2023-01-08T05:22:06.392Z,21.50
2023-01-08T05:24:35.192Z,21.50
2023-01-08T05:31:49.316Z,26.80
2023-01-08T05:34:17.327Z,24.10
2023-01-08T05:36:45.285Z,25.40
2023-01-08T05:40:30.916Z,26.20
2023-01-08T05:43:02.296Z,25.50
2023-01-08T05:46:48.905Z,27.60
2023-01-08T05:49:17.033Z,28.20
2023-01-08T05:51:45.217Z,28.50
2023-01-08T05:54:13.138Z,25.70
2023-01-08T05:56:44.036Z,27.20
2023-01-08T06:03:59.409Z,33.40
2023-01-08T06:06:27.388Z,34.20
2023-01-08T06:08:55.453Z,35.40
2023-01-08T06:11:23.407Z,29.70
2023-01-08T06:13:51.392Z,29.50
2023-01-08T06:16:21.096Z,28.40
2023-01-08T06:18:49.160Z,32.90
2023-01-08T06:21:17.139Z,32.40
2023-01-08T06:23:45.105Z,33.10
2023-01-08T06:26:13.112Z,38.20
2023-01-08T06:28:41.011Z,42.50
2023-01-08T06:31:08.991Z,39.50
2023-01-08T06:33:36.950Z,35.90
2023-01-08T06:36:05.618Z,40.60
2023-01-08T06:38:35.096Z,36.40
2023-01-08T06:41:05.223Z,39.00
2023-01-08T06:43:36.301Z,34.40
2023-01-08T06:46:08.972Z,34.50
2023-01-08T06:48:38.211Z,34.70
2023-01-08T06:51:06.754Z,37.80
2023-01-08T06:53:34.969Z,36.30
2023-01-08T06:56:04.844Z,39.10
2023-01-08T06:58:33.200Z,39.30
2023-01-08T07:01:01.251Z,39.70
2023-01-08T07:03:29.355Z,32.80
2023-01-08T07:05:57.662Z,31.50
2023-01-08T07:08:25.868Z,29.80
2023-01-08T07:10:54.238Z,25.30
2023-01-08T07:13:24.101Z,25.30
2023-01-08T07:15:52.203Z,25.30
2023-01-08T07:18:20.195Z,26.70
2023-01-08T07:20:51.151Z,26.60
2023-01-08T07:23:19.013Z,27.80
2023-01-08T07:25:47.692Z,30.80
2023-01-08T07:28:15.936Z,28.10
2023-01-08T07:30:44.855Z,32.00
2023-01-08T07:33:13.008Z,33.90
2023-01-08T07:35:41.094Z,32.70
2023-01-08T07:38:09.045Z,31.30
2023-01-08T07:40:39.277Z,30.70
2023-01-08T07:43:07.516Z,30.10
2023-01-08T07:45:35.489Z,28.60
2023-01-08T07:48:03.887Z,31.30
2023-01-08T07:50:33.008Z,32.80
2023-01-08T07:53:01.779Z,33.40
2023-01-08T07:55:31.393Z,31.90
2023-01-08T07:57:59.563Z,32.40
2023-01-08T08:00:27.919Z,48.00
2023-01-08T08:02:56.046Z,41.50
2023-01-08T08:05:24.143Z,51.50
2023-01-08T08:07:52.092Z,40.60
2023-01-08T08:10:20.104Z,29.50
2023-01-08T08:12:48.073Z,29.60
2023-01-08T08:15:16.172Z,27.70
2023-01-08T08:17:48.335Z,27.50
2023-01-08T08:20:16.725Z,25.90
2023-01-08T08:22:45.739Z,28.90
2023-01-08T08:25:16.363Z,28.50
2023-01-08T08:27:45.667Z,27.90
2023-01-08T08:30:14.255Z,28.10
2023-01-08T08:32:42.205Z,28.70
2023-01-08T08:35:10.404Z,28.60
2023-01-08T08:37:38.471Z,27.60
2023-01-08T08:40:07.249Z,27.50
2023-01-08T08:42:35.329Z,25.10
2023-01-08T08:45:03.796Z,27.20
2023-01-08T08:48:07.763Z,25.80
2023-01-08T08:50:36.273Z,25.40
2023-01-08T08:53:06.339Z,22.60
2023-01-08T08:55:34.742Z,25.90
2023-01-08T08:58:05.503Z,28.00
2023-01-08T09:00:34.138Z,29.40
2023-01-08T09:03:02.217Z,31.40
2023-01-08T09:05:30.670Z,33.30
2023-01-08T09:07:58.733Z,28.10
2023-01-08T09:10:27.118Z,25.90
2023-01-08T09:12:55.225Z,23.50
2023-01-08T09:15:23.260Z,24.90
2023-01-08T09:17:56.317Z,24.80
2023-01-08T09:20:26.346Z,25.40
2023-01-08T09:22:54.679Z,27.20
2023-01-08T09:25:22.641Z,25.80
2023-01-08T09:27:59.358Z,26.50
2023-01-08T09:30:27.583Z,28.30
2023-01-08T09:33:02.208Z,29.40
2023-01-08T09:35:32.220Z,27.60
2023-01-08T09:38:00.394Z,29.10
2023-01-08T09:40:55.434Z,27.70
2023-01-08T09:43:25.724Z,28.80
2023-01-08T09:46:00.789Z,27.30
2023-01-08T09:48:31.931Z,26.20
2023-01-08T09:50:59.974Z,29.20
2023-01-08T09:53:28.336Z,30.90
2023-01-08T09:56:09.743Z,29.70
2023-01-08T09:58:46.754Z,29.60
2023-01-08T10:01:17.235Z,28.90
2023-01-08T10:03:53.249Z,27.10
2023-01-08T10:06:24.466Z,25.80
2023-01-08T10:08:52.701Z,27.50
2023-01-08T10:11:21.919Z,25.90
2023-01-08T10:13:56.483Z,25.30
2023-01-08T10:19:53.452Z,22.60
2023-01-08T10:22:25.263Z,26.30
2023-01-08T10:24:53.263Z,22.20
2023-01-08T10:27:24.068Z,22.30
2023-01-08T10:29:53.392Z,23.70
2023-01-08T10:32:34.752Z,25.00
2023-01-08T10:35:07.923Z,25.00
2023-01-08T10:37:44.890Z,23.60
2023-01-08T10:40:42.414Z,22.80
2023-01-08T10:43:37.681Z,22.80
2023-01-08T10:48:48.289Z,21.90
2023-01-08T10:51:20.579Z,22.60
2023-01-08T10:53:49.059Z,20.10
2023-01-08T10:56:21.176Z,19.10
2023-01-08T10:58:50.439Z,19.50
2023-01-08T11:01:24.256Z,16.40
2023-01-08T11:03:59.923Z,19.40
2023-01-08T11:06:34.163Z,17.60
2023-01-08T11:09:14.348Z,18.00
2023-01-08T11:13:04.829Z,16.80
2023-01-08T11:15:42.082Z,17.30
2023-01-08T11:18:22.247Z,16.70
2023-01-08T11:21:47.931Z,18.90
2023-01-08T11:24:21.321Z,20.30
2023-01-08T11:26:53.875Z,20.20
2023-01-08T11:29:57.993Z,19.60
2023-01-08T11:32:35.089Z,20.20
2023-01-08T11:35:14.095Z,26.50
2023-01-08T11:38:08.579Z,21.30
2023-01-08T11:40:55.241Z,19.20
2023-01-08T11:43:42.126Z,17.50
2023-01-08T11:46:48.672Z,18.00
2023-01-08T11:49:36.123Z,18.00
2023-01-08T11:52:17.638Z,21.70
2023-01-08T11:55:10.764Z,18.30
2023-01-08T11:58:14.242Z,19.10
2023-01-08T12:01:20.865Z,18.50
2023-01-08T12:04:13.476Z,16.70
2023-01-08T12:07:01.057Z,17.40
2023-01-08T12:09:41.317Z,14.90
2023-01-08T12:12:37.762Z,13.70
2023-01-08T12:15:26.750Z,13.90
2023-01-08T12:18:06.945Z,15.80
2023-01-08T12:20:43.611Z,16.40
2023-01-08T12:23:43.080Z,14.80
2023-01-08T12:26:32.676Z,15.50
2023-01-08T12:29:12.462Z,14.10
2023-01-08T12:31:46.333Z,15.20
2023-01-08T12:34:27.872Z,13.90
2023-01-08T12:37:11.304Z,15.30
2023-01-08T12:39:56.874Z,14.10
2023-01-08T12:42:29.751Z,13.00
2023-01-08T12:45:00.976Z,14.90
2023-01-08T12:47:35.743Z,14.80
2023-01-08T12:50:06.702Z,16.10
2023-01-08T12:53:00.234Z,15.20
2023-01-08T12:55:51.931Z,13.10
2023-01-08T12:58:25.772Z,10.40
2023-01-08T13:01:07.672Z,15.10
2023-01-08T13:03:36.349Z,12.70
2023-01-08T13:06:14.988Z,14.50
2023-01-08T13:09:05.112Z,12.80
2023-01-08T13:11:37.695Z,20.70
2023-01-08T13:14:11.929Z,15.30
2023-01-08T13:16:42.377Z,12.60
2023-01-08T13:19:28.083Z,12.70
2023-01-08T13:21:58.842Z,12.20
2023-01-08T13:24:31.543Z,11.00
2023-01-08T13:27:14.946Z,13.70
2023-01-08T13:29:50.041Z,15.70
2023-01-08T13:32:42.248Z,13.80
2023-01-08T13:35:22.750Z,13.50
2023-01-08T13:37:53.417Z,13.10
2023-01-08T13:41:00.826Z,15.40
2023-01-08T13:43:31.713Z,50.60
2023-01-08T13:46:02.520Z,29.40
2023-01-08T13:48:49.424Z,44.10
2023-01-08T13:51:44.507Z,31.40
2023-01-08T13:54:20.008Z,27.90
2023-01-08T13:56:54.307Z,28.20
2023-01-08T14:02:01.486Z,23.10
2023-01-08T14:04:29.635Z,21.80
2023-01-08T14:07:14.922Z,20.20
2023-01-08T14:09:42.832Z,21.20
2023-01-08T14:12:23.171Z,18.60
2023-01-08T14:14:58.934Z,25.20
2023-01-08T14:17:32.380Z,27.60
2023-01-08T14:20:00.432Z,26.90
2023-01-08T14:22:33.856Z,30.00
2023-01-08T14:25:06.608Z,33.50
2023-01-08T14:27:35.435Z,31.10
2023-01-08T14:30:16.229Z,28.50
2023-01-08T14:32:45.353Z,34.10
2023-01-08T14:35:21.074Z,30.30
2023-01-08T14:37:49.171Z,31.60
2023-01-08T14:40:28.049Z,35.30
2023-01-08T14:42:57.789Z,35.60
2023-01-08T14:45:34.952Z,33.30
2023-01-08T14:48:16.272Z,33.20
2023-01-08T14:51:00.331Z,35.20
2023-01-08T14:54:06.511Z,54.00
2023-01-08T14:56:36.369Z,32.40
2023-01-08T14:59:11.980Z,39.80
2023-01-08T15:01:40.548Z,52.50
2023-01-08T15:04:18.726Z,73.40
2023-01-08T15:06:47.203Z,143.80
2023-01-08T15:09:30.241Z,140.90
2023-01-08T15:12:01.007Z,76.50
2023-01-08T15:14:31.241Z,70.90
2023-01-08T15:17:08.132Z,70.40
2023-01-08T15:19:42.480Z,59.80
2023-01-08T15:22:32.868Z,59.90
2023-01-08T15:25:04.725Z,53.70
2023-01-08T15:27:37.462Z,55.00
2023-01-08T15:30:09.440Z,53.20
2023-01-08T15:32:39.219Z,53.60
2023-01-08T15:35:18.851Z,74.20
2023-01-08T15:37:47.041Z,67.50
2023-01-08T15:40:15.208Z,58.30
2023-01-08T15:43:02.588Z,55.20
2023-01-08T15:45:34.392Z,55.20
2023-01-08T15:48:02.929Z,59.50
2023-01-08T15:50:37.946Z,61.70
2023-01-08T15:53:10.271Z,64.60
2023-01-08T15:55:38.386Z,61.30
2023-01-08T15:58:06.328Z,62.90
2023-01-08T16:00:34.309Z,71.10
2023-01-08T16:03:07.344Z,82.50
2023-01-08T16:05:36.836Z,80.20
2023-01-08T16:08:05.781Z,95.00
2023-01-08T16:10:34.410Z,162.20
2023-01-08T16:13:02.437Z,159.30
2023-01-08T16:15:31.118Z,134.90
2023-01-08T16:17:59.731Z,144.30
2023-01-08T16:20:27.790Z,95.40
2023-01-08T16:22:57.339Z,83.90
2023-01-08T16:25:25.475Z,93.00
2023-01-08T16:27:54.823Z,102.20
2023-01-08T16:30:23.786Z,117.10
2023-01-08T16:32:53.411Z,94.10
2023-01-08T16:35:22.400Z,86.90
2023-01-08T16:37:50.459Z,80.50
2023-01-08T16:40:48.019Z,91.60
2023-01-08T16:43:16.028Z,85.80
2023-01-08T16:45:49.617Z,91.00
2023-01-08T16:48:18.763Z,79.10
2023-01-08T16:50:47.205Z,81.40
2023-01-08T16:53:17.609Z,83.20
2023-01-08T16:55:45.560Z,72.60
2023-01-08T16:58:13.926Z,78.50
2023-01-08T17:00:43.150Z,77.20
2023-01-08T17:03:11.113Z,107.80
2023-01-08T17:05:39.167Z,92.50
2023-01-08T17:08:08.424Z,95.00
2023-01-08T17:10:39.823Z,91.80
2023-01-08T17:13:07.885Z,92.20
2023-01-08T17:15:40.425Z,110.60
2023-01-08T17:18:10.503Z,166.50
2023-01-08T17:20:38.478Z,165.60
2023-01-08T17:23:06.476Z,146.00
2023-01-08T17:25:34.455Z,141.10
2023-01-08T17:28:02.350Z,126.70
2023-01-08T17:30:30.358Z,113.60
2023-01-08T17:32:58.295Z,105.60
2023-01-08T17:35:26.259Z,101.50
2023-01-08T17:37:54.232Z,101.40
2023-01-08T17:40:22.182Z,100.80
2023-01-08T17:42:50.237Z,105.90
2023-01-08T17:45:18.298Z,90.10
2023-01-08T17:47:46.361Z,89.50
2023-01-08T17:50:14.351Z,86.50
2023-01-08T17:52:42.339Z,93.80
2023-01-08T17:55:10.933Z,85.20
2023-01-08T17:57:39.397Z,78.50
2023-01-08T18:00:08.037Z,65.50
2023-01-08T18:02:36.758Z,63.90
2023-01-08T18:05:05.427Z,66.80
2023-01-08T18:07:34.594Z,60.50
2023-01-08T18:10:05.603Z,68.20
2023-01-08T18:12:33.681Z,80.00
2023-01-08T18:15:02.655Z,61.20
2023-01-08T18:17:32.160Z,54.80
2023-01-08T18:20:00.196Z,72.50
2023-01-08T18:22:28.265Z,72.10
2023-01-08T18:24:58.418Z,49.90
2023-01-08T18:27:26.451Z,56.40
2023-01-08T18:29:54.907Z,52.20
2023-01-08T18:32:26.151Z,61.50
2023-01-08T18:34:54.171Z,71.30
2023-01-08T18:37:23.665Z,63.30
2023-01-08T18:39:51.729Z,55.60
2023-01-08T18:42:25.978Z,57.30
2023-01-08T18:44:56.194Z,68.20
2023-01-08T18:47:27.149Z,72.30
2023-01-08T18:49:58.753Z,61.70
2023-01-08T18:52:26.791Z,64.70
2023-01-08T18:54:54.709Z,56.50
2023-01-08T18:57:22.925Z,48.90
2023-01-08T18:59:51.419Z,49.10
2023-01-08T19:02:22.631Z,49.90
2023-01-08T19:04:50.716Z,55.50
2023-01-08T19:07:20.276Z,99.60
2023-01-08T19:09:48.449Z,95.50
2023-01-08T19:12:16.474Z,81.60
2023-01-08T19:14:46.351Z,81.40
2023-01-08T19:17:15.110Z,99.90
2023-01-08T19:19:43.194Z,78.40
2023-01-08T19:22:11.372Z,82.30
2023-01-08T19:25:24.188Z,155.40
2023-01-08T19:27:52.457Z,159.10
2023-01-08T19:30:20.721Z,136.70
2023-01-08T19:32:49.051Z,132.10
2023-01-08T19:35:17.259Z,133.10
2023-01-08T19:37:45.400Z,144.90
2023-01-08T19:40:13.797Z,151.60
2023-01-08T19:43:00.555Z,156.40
2023-01-08T19:45:28.823Z,145.80
2023-01-08T19:47:57.037Z,151.80
2023-01-08T19:50:25.111Z,130.60
2023-01-08T19:52:53.599Z,133.90
2023-01-08T19:55:22.368Z,133.90
2023-01-08T19:57:51.302Z,116.80
2023-01-08T20:00:22.512Z,140.00
2023-01-08T20:02:51.782Z,97.10
2023-01-08T20:05:20.598Z,71.50
2023-01-08T20:07:52.039Z,68.10
2023-01-08T20:10:20.166Z,68.10
2023-01-08T20:12:48.167Z,90.70
2023-01-08T20:15:22.287Z,120.80
2023-01-08T20:17:50.854Z,168.50
2023-01-08T20:20:18.956Z,180.10
2023-01-08T20:22:47.049Z,188.70
2023-01-08T20:25:15.560Z,150.90
2023-01-08T20:27:43.791Z,76.60
2023-01-08T20:30:14.725Z,70.00
2023-01-08T20:32:44.183Z,64.50
2023-01-08T20:35:12.244Z,73.90
2023-01-08T20:37:40.464Z,66.70
2023-01-08T20:40:09.171Z,54.70
2023-01-08T20:42:37.147Z,52.90
2023-01-08T20:45:05.559Z,51.80
2023-01-08T20:47:35.156Z,49.90
2023-01-08T20:50:12.367Z,49.90
2023-01-08T20:52:47.720Z,50.10
2023-01-08T20:55:17.525Z,54.90
2023-01-08T20:57:46.596Z,63.40
2023-01-08T21:00:15.048Z,60.20
2023-01-08T21:02:44.792Z,57.20
2023-01-08T21:05:13.103Z,85.30
2023-01-08T21:07:41.717Z,140.00
2023-01-08T21:10:12.601Z,176.40
2023-01-08T21:12:42.539Z,182.20
2023-01-08T21:15:13.028Z,182.60
2023-01-08T21:17:41.694Z,191.10
2023-01-08T21:20:36.855Z,171.90
2023-01-08T21:23:04.966Z,131.00
2023-01-08T21:25:35.244Z,82.30
2023-01-08T21:28:03.870Z,79.00
2023-01-08T21:30:41.330Z,70.70
2023-01-08T21:33:10.930Z,77.30
2023-01-08T21:35:38.953Z,70.70
2023-01-08T21:38:07.132Z,70.90
2023-01-08T21:40:35.203Z,75.50
2023-01-08T21:43:22.776Z,80.60
2023-01-08T21:46:11.560Z,83.70
2023-01-08T21:48:40.133Z,85.10
2023-01-08T21:51:33.365Z,65.60
2023-01-08T21:54:02.437Z,58.40
2023-01-08T21:56:31.151Z,44.20
2023-01-08T21:58:59.429Z,43.50
2023-01-08T22:01:27.823Z,43.00
2023-01-08T22:03:56.913Z,46.20
2023-01-08T22:10:41.365Z,50.80
2023-01-08T22:13:09.477Z,50.60
2023-01-08T22:15:37.746Z,48.40
2023-01-08T22:18:05.957Z,50.60
2023-01-08T22:20:34.270Z,48.50
2023-01-08T22:23:02.653Z,46.90
2023-01-08T22:25:30.909Z,48.90
2023-01-08T22:27:58.869Z,49.10
2023-01-08T22:30:27.190Z,54.10
2023-01-08T22:32:55.257Z,44.30
2023-01-08T22:35:23.295Z,42.80
2023-01-08T22:37:51.302Z,44.20
2023-01-08T22:40:19.380Z,47.90
2023-01-08T22:42:47.419Z,50.30
2023-01-08T22:45:15.452Z,45.70
2023-01-08T22:47:43.499Z,42.20
2023-01-08T22:50:12.412Z,41.40
2023-01-08T22:52:40.551Z,42.30
2023-01-08T22:55:08.942Z,42.70
2023-01-08T22:57:37.021Z,41.40
2023-01-08T23:00:07.837Z,40.40
2023-01-08T23:02:37.214Z,38.60
2023-01-08T23:05:05.640Z,37.90
2023-01-08T23:07:33.678Z,38.60
2023-01-08T23:10:02.275Z,38.60
2023-01-08T23:12:34.418Z,39.10
2023-01-08T23:15:56.383Z,43.80
2023-01-08T23:18:24.359Z,41.40
2023-01-08T23:20:52.510Z,41.60
2023-01-08T23:23:20.430Z,43.10
2023-01-08T23:25:48.410Z,43.50
2023-01-08T23:28:16.662Z,46.00
2023-01-08T23:30:44.742Z,45.60
2023-01-08T23:33:13.050Z,45.90
2023-01-08T23:36:02.793Z,42.30
2023-01-08T23:38:31.114Z,70.90
2023-01-08T23:40:59.572Z,50.40
2023-01-08T23:43:27.860Z,50.60
2023-01-08T23:47:14.274Z,48.60
2023-01-08T23:49:42.507Z,44.00
2023-01-08T23:52:10.579Z,38.10
2023-01-08T23:54:38.757Z,33.90
2023-01-08T23:57:07.190Z,37.30
